createdAt,value
2023-03-10T04:59:03.071Z,9.80
2023-03-10T05:02:06.012Z,12.35
2023-03-10T05:05:09.081Z,11.93
2023-03-10T05:08:12.405Z,13.93
2023-03-10T05:11:14.521Z,13.68
2023-03-10T05:14:17.363Z,12.55
2023-03-10T05:17:19.571Z,17.33
2023-03-10T05:20:22.880Z,15.85
2023-03-10T05:23:25.270Z,14.55
2023-03-10T05:26:28.544Z,13.02
2023-03-10T05:29:31.123Z,13.70
2023-03-10T05:32:35.510Z,13.62
2023-03-10T05:35:39.348Z,13.00
2023-03-10T05:38:43.085Z,13.38
2023-03-10T05:41:46.996Z,15.88
2023-03-10T05:44:49.523Z,12.65
2023-03-10T05:47:52.041Z,14.38
2023-03-10T05:51:06.124Z,15.48
2023-03-10T05:54:09.515Z,15.07
2023-03-10T05:57:13.996Z,14.38
2023-03-10T06:00:17.258Z,14.00
2023-03-10T06:03:20.144Z,15.93
2023-03-10T06:06:22.348Z,14.65
2023-03-10T06:09:24.769Z,13.02
2023-03-10T06:12:26.945Z,12.15
2023-03-10T06:15:30.162Z,18.00
2023-03-10T06:18:33.424Z,12.05
2023-03-10T06:21:35.776Z,18.12
2023-03-10T06:24:37.852Z,17.52
2023-03-10T06:27:40.258Z,21.20
2023-03-10T06:30:42.416Z,15.70
2023-03-10T06:33:45.009Z,13.88
2023-03-10T06:36:47.123Z,13.95
2023-03-10T06:39:49.504Z,15.90
2023-03-10T06:42:51.675Z,13.70
2023-03-10T06:45:54.136Z,13.18
2023-03-10T06:48:56.401Z,21.77
2023-03-10T06:52:00.297Z,11.93
2023-03-10T06:55:02.565Z,15.55
2023-03-10T06:58:05.375Z,18.05
2023-03-10T07:01:08.548Z,19.92
2023-03-10T07:04:12.434Z,16.33
2023-03-10T07:07:15.103Z,18.23
2023-03-10T07:10:20.207Z,16.95
2023-03-10T07:13:22.750Z,14.70
2023-03-10T07:16:27.506Z,19.85
2023-03-10T07:19:30.309Z,21.23
2023-03-10T07:22:33.001Z,17.25
2023-03-10T07:25:36.517Z,15.00
2023-03-10T07:28:39.189Z,17.75
2023-03-10T07:31:44.893Z,30.42
2023-03-10T07:34:47.568Z,17.80
2023-03-10T07:37:49.692Z,19.73
2023-03-10T07:40:52.104Z,20.98
2023-03-10T07:43:55.103Z,30.67
2023-03-10T07:46:57.459Z,24.63
2023-03-10T07:49:59.597Z,31.77
2023-03-10T07:53:02.081Z,33.53
2023-03-10T07:56:09.743Z,25.40
2023-03-10T07:59:12.200Z,23.12
2023-03-10T08:02:14.868Z,21.73
2023-03-10T08:05:18.053Z,25.67
2023-03-10T08:08:21.044Z,21.17
2023-03-10T08:11:23.504Z,17.98
2023-03-10T08:14:29.642Z,16.73
2023-03-10T08:17:33.434Z,19.62
2023-03-10T08:20:36.563Z,18.80
2023-03-10T08:23:39.460Z,28.15
2023-03-10T08:26:41.654Z,19.17
2023-03-10T08:29:44.274Z,17.55
2023-03-10T08:32:46.477Z,17.83
2023-03-10T08:35:49.124Z,21.02
2023-03-10T08:38:53.624Z,31.25
2023-03-10T08:41:56.153Z,30.60
2023-03-10T08:44:58.295Z,19.83
2023-03-10T08:48:01.416Z,22.17
2023-03-10T08:51:04.638Z,20.75
2023-03-10T08:54:08.240Z,19.92
2023-03-10T08:57:10.617Z,24.42
2023-03-10T09:00:16.132Z,17.87
2023-03-10T09:03:20.030Z,15.48
2023-03-10T09:06:23.057Z,29.73
2023-03-10T09:09:25.338Z,19.45
2023-03-10T09:12:34.050Z,13.90
2023-03-10T09:15:41.147Z,13.52
2023-03-10T09:21:47.689Z,19.65
2023-03-10T09:24:50.192Z,25.65
2023-03-10T09:27:52.345Z,23.40
2023-03-10T09:30:54.998Z,18.45
2023-03-10T09:33:57.320Z,16.65
2023-03-10T09:37:00.105Z,16.15
2023-03-10T09:40:06.403Z,14.50
2023-03-10T09:43:17.419Z,15.02
2023-03-10T09:46:50.545Z,11.30
2023-03-10T09:49:53.009Z,14.00
2023-03-10T09:53:20.268Z,14.35
2023-03-10T09:56:29.876Z,15.40
2023-03-10T09:59:40.660Z,15.50
2023-03-10T10:02:47.621Z,15.45
2023-03-10T10:05:53.744Z,13.43
2023-03-10T10:09:05.851Z,16.35
2023-03-10T10:12:27.044Z,17.70
2023-03-10T10:15:35.319Z,17.75
2023-03-10T10:18:43.054Z,15.68
2023-03-10T10:22:10.154Z,10.60
2023-03-10T10:25:24.363Z,16.15
2023-03-10T10:28:41.813Z,13.32
2023-03-10T10:32:09.335Z,9.77
2023-03-10T10:35:15.450Z,13.70
2023-03-10T10:38:24.746Z,14.70
2023-03-10T10:41:32.296Z,10.52
2023-03-10T10:44:43.815Z,22.70
2023-03-10T10:47:51.471Z,13.18
2023-03-10T10:50:54.507Z,12.63
2023-03-10T10:53:58.618Z,11.23
2023-03-10T10:57:02.053Z,11.85
2023-03-10T11:00:26.542Z,11.20
2023-03-10T11:03:41.274Z,10.75
2023-03-10T11:06:44.477Z,10.82
2023-03-10T11:09:48.102Z,14.70
2023-03-10T11:12:50.525Z,13.43
2023-03-10T11:16:11.537Z,13.40
2023-03-10T11:19:51.463Z,7.95
2023-03-10T11:22:57.057Z,15.73
2023-03-10T11:26:10.595Z,11.97
2023-03-10T11:29:22.270Z,9.70
2023-03-10T11:32:30.594Z,12.15
2023-03-10T11:35:45.919Z,10.65
2023-03-10T11:38:51.315Z,9.90
2023-03-10T11:42:21.785Z,13.60
2023-03-10T11:45:45.420Z,17.40
2023-03-10T11:49:01.979Z,9.65
2023-03-10T11:52:13.360Z,11.10
2023-03-10T11:55:21.355Z,12.37
2023-03-10T11:58:32.562Z,7.30
2023-03-10T12:01:58.734Z,10.48
2023-03-10T12:05:17.124Z,12.45
2023-03-10T12:08:23.460Z,9.07
2023-03-10T12:11:29.254Z,10.77
2023-03-10T12:14:33.001Z,9.23
2023-03-10T12:17:37.307Z,8.68
2023-03-10T12:20:39.503Z,6.62
2023-03-10T12:23:47.570Z,8.00
2023-03-10T12:27:04.049Z,8.75
2023-03-10T12:30:46.012Z,7.43
2023-03-10T12:33:50.633Z,7.30
2023-03-10T12:36:55.404Z,8.13
2023-03-10T12:39:57.814Z,8.10
2023-03-10T12:43:41.224Z,9.32
2023-03-10T12:46:48.961Z,8.55
2023-03-10T12:49:51.382Z,9.13
2023-03-10T12:53:13.372Z,4.43
2023-03-10T12:56:15.678Z,8.48
2023-03-10T12:59:41.964Z,12.57
2023-03-10T13:02:50.503Z,18.08
2023-03-10T13:06:06.943Z,7.90
2023-03-10T13:09:27.170Z,5.28
2023-03-10T13:12:48.663Z,5.80
2023-03-10T13:16:06.897Z,4.60
2023-03-10T13:19:20.703Z,4.97
2023-03-10T13:22:23.145Z,6.43
2023-03-10T13:25:26.346Z,4.50
2023-03-10T13:28:34.465Z,11.63
2023-03-10T13:31:36.650Z,4.70
2023-03-10T13:34:39.892Z,8.88
2023-03-10T13:37:42.008Z,12.37
2023-03-10T13:40:49.840Z,11.95
2023-03-10T13:43:53.986Z,13.52
2023-03-10T13:47:00.563Z,7.65
2023-03-10T13:50:03.177Z,5.47
2023-03-10T13:53:05.577Z,9.40
2023-03-10T13:56:23.779Z,7.25
2023-03-10T13:59:31.467Z,10.05
2023-03-10T14:02:36.894Z,6.45
2023-03-10T14:05:49.068Z,7.00
2023-03-10T14:08:52.004Z,6.95
2023-03-10T14:11:54.392Z,10.38
2023-03-10T14:15:12.563Z,6.93
2023-03-10T14:18:14.957Z,4.20
2023-03-10T14:21:58.487Z,7.97
2023-03-10T14:25:11.803Z,5.97
2023-03-10T14:28:23.801Z,5.30
2023-03-10T14:31:26.437Z,5.25
2023-03-10T14:34:28.812Z,6.25
2023-03-10T14:37:31.212Z,6.25
2023-03-10T14:40:40.098Z,7.05
2023-03-10T14:43:42.821Z,6.32
2023-03-10T14:46:47.923Z,9.68
2023-03-10T14:49:50.555Z,6.68
2023-03-10T14:52:52.901Z,8.98
2023-03-10T14:55:57.347Z,16.40
2023-03-10T14:59:02.352Z,9.82
2023-03-10T15:02:25.444Z,7.75
2023-03-10T15:05:45.110Z,8.15
2023-03-10T15:08:49.545Z,7.10
2023-03-10T15:11:53.646Z,12.18
2023-03-10T15:14:56.084Z,10.55
2023-03-10T15:17:58.224Z,9.25
2023-03-10T15:21:02.382Z,10.07
2023-03-10T15:24:07.540Z,10.98
2023-03-10T15:27:13.412Z,8.80
2023-03-10T15:30:23.099Z,11.07
2023-03-10T15:33:25.521Z,7.07
2023-03-10T15:36:27.698Z,9.77
2023-03-10T15:39:32.651Z,9.90
2023-03-10T15:42:35.941Z,10.45
2023-03-10T15:45:41.412Z,12.98
2023-03-10T15:48:43.598Z,7.62
2023-03-10T15:51:46.020Z,7.20
2023-03-10T15:54:48.176Z,6.90
2023-03-10T15:57:51.236Z,7.82
2023-03-10T16:00:53.311Z,8.20
2023-03-10T16:03:55.778Z,6.28
2023-03-10T16:07:02.240Z,6.80
2023-03-10T16:10:05.729Z,7.72
2023-03-10T16:13:07.863Z,7.50
2023-03-10T16:16:11.811Z,7.35
2023-03-10T16:19:14.010Z,9.05
2023-03-10T16:22:17.145Z,7.07
2023-03-10T16:25:21.104Z,6.75
2023-03-10T16:28:23.465Z,8.25
2023-03-10T16:31:27.286Z,8.63
2023-03-10T16:34:29.688Z,8.10
